Sandy Hook, Virginia
Current Conditions -  °F | °C
As of 11:55 PM on Monday 22 Dec 2014 (Local Time) from K7W4 Reporting Station
Overcast Overcast  
Wind Chill: 34°   Ceiling: 400
Heat Index: 34°   Visibility: 4mi
Dew Point: 34°   Wind: 3mph
Humidity: 98%   Direction: 350°N
Pressure: 30.07"   Gusts: NA
Location:  37.75°N, 77.91°W
Report Text: K7W4 230455Z AUTO 35003KT 4SM OVC004 01/01 A3007 RMK AO1 T00130010 400151004
Loading
Personal Weather Stations






























Interactive Weather Map New forecast layout! Learn more

10-Day Weather Forecast

Advertisements
Track Severe Weather on mobile